San Leandro, CA (94577)

3:47 AM PDT on September 18, 2014 (GMT -0700)
SL Marina | Change Station
CLOSE
Current Station
Personal Weather Station
Location: San Leandro, CA
Elevation: 10 ft
Nearby Weather Stations

Elev 10 ft 37.71 °N, 122.19 °W | Updated 0 second ago

Overcast
Overcast
70.1 °F
Feels Like 70.1 °F
N
3.0
Wind Variable Wind from SE

Today
High -- | Low -- °F
--% Chance of Precip.
Yesterday
High -- | Low -- °F
Precip. -- in
6:53 AM 7:11 PM
Waning Crescent, 28% visible
Pressure 29.78 in
Visibility 10.0 miles
Clouds Mostly Cloudy 3000 ft
Overcast 3900 ft
Dew Point 65 °F
Humidity 83%
Rainfall 0.00 in
Snow Depth 0 in , 0 in , 0 in
UV 16.0 out of 12
Pollen 5.10 out of 12
PM2.5 Good
Flu Activity Not available.
SPECI KOAK 181040Z 18009KT 10SM BKN030 OVC039 21/17 A2978

More Conditions Fewer Conditions

Pressure 29.78 in
Visibility 10.0 miles
Clouds Mostly Cloudy 3000 ft
Overcast 3900 ft
Dew Point 65 °F
Humidity 83%
Rainfall 0.00 in
Snow Depth 0 in , 0 in , 0 in
UV 16.0 out of 12
Pollen 5.10 out of 12
PM2.5 Good
Flu Activity Not available.
SPECI KOAK 181040Z 18009KT 10SM BKN030 OVC039 21/17 A2978

More Conditions Fewer Conditions

10-Day Weather Forecast

Almanac

Astronomy

Sep. 18, 2014 Rise Set
Actual Time 6:53 AM PDT 7:11 PM PDT
Civil Twilight 6:26 AM PDT 7:37 PM PDT
Nautical Twilight 5:56 AM PDT 8:08 PM PDT
Astronomical Twilight 5:24 AM PDT 8:39 PM PDT
Moon 1:54 AM PDT 4:02 PM PDT
Length of Visible Light 13h 10m
Length of Day
12h 18m
Tomorrow will be 2m 24s shorter.
Waning Crescent, 28% of the Moon is Illuminated
Today
Waning Crescent
Sep 24
New
Oct 1
First Quarter
Oct 8
Full
Oct 15
Last Quarter

Today's Extremes

State Highs State Lows

Community

WunderPhotos

Upload Photos

1,754,314 photos uploaded!

Nearby

Air Quality

  Air Quality AQ Index Pollutant
Yesterday Good
OZONE
Yesterday Good
PM2.5
Current Good
PM2.5
Thursday Good
OZONE
Friday Good
PM2.5
Saturday Moderate
PM2.5
Sunday Moderate
PM2.5
Monday Moderate
PM2.5

Snow Depth

Station Depth Elevation
Blue Lakes 0 in 8000 ft
Forestdale Creek 0 in 8029 ft
Fallen Leaf 0 in 6300 ft
Sonora Pass 0 in 8800 ft
Hagan's Meadow 0 in 8000 ft

Earthquake Activity

City Distance Mag. Time & Date
The Geysers, California 77 miles 2.5 11:29 PM PDT
2014-09-17
Cobb, California 80 miles 2.7 1:23 PM PDT
2014-09-16
Minimum magnitude displayed is 2.5.

Coastal Water Temperatures

Place Temperature
No Stations Reporting

Nearby Weather Stations